Time;durP1;ratioP1;P1;durP2;ratioP2;P2;SDS_P1;SDS_P2;PMS_P1;PMS_P2;Temp;Humidity;BMP_temperature;BMP_pressure;BME280_temperature;BME280_humidity;BME280_pressure;Samples;Min_cycle;Max_cycle;Signal;HPM_P1;HPM_P2
2022/05/17 00:01:34;;;;;;;14.73;3.83;;;;;;;;;;5066580;28;20127;-67
2022/05/17 00:04:01;;;;;;;11.60;3.05;;;;;;;;;;5066541;28;20128;-67
2022/05/17 00:06:29;;;;;;;24.67;4.53;;;;;;;;;;5066452;28;20044;-67
2022/05/17 00:08:57;;;;;;;21.40;4.22;;;;;;;;;;5069964;28;20036;-67
2022/05/17 00:11:24;;;;;;;9.70;3.08;;;;;;;;;;5072688;28;20048;-67
2022/05/17 00:13:51;;;;;;;18.25;4.57;;;;;;;;;;5066182;28;20051;-67
2022/05/17 00:16:17;;;;;;;9.35;2.95;;;;;;;;;;5066361;28;20041;-67
2022/05/17 00:18:44;;;;;;;27.40;3.97;;;;;;;;;;5063879;28;20043;-66
2022/05/17 00:21:10;;;;;;;15.68;3.92;;;;;;;;;;5066778;28;20116;-67
2022/05/17 00:23:37;;;;;;;22.40;3.60;;;;;;;;;;5074562;28;20037;-66
2022/05/17 00:26:05;;;;;;;9.75;2.90;;;;;;;;;;5066571;28;20040;-67
2022/05/17 00:28:32;;;;;;;13.07;2.75;;;;;;;;;;5067809;28;20044;-67
2022/05/17 00:31:00;;;;;;;12.85;3.10;;;;;;;;;;5066113;28;20045;-67
2022/05/17 00:33:27;;;;;;;21.00;3.10;;;;;;;;;;5066108;28;20049;-67
2022/05/17 00:35:53;;;;;;;22.92;3.55;;;;;;;;;;5071250;28;20036;-67
2022/05/17 00:38:20;;;;;;;9.15;2.50;;;;;;;;;;5065086;28;20087;-67
2022/05/17 00:40:46;;;;;;;19.88;3.28;;;;;;;;;;5063497;28;20409;-67
2022/05/17 00:43:20;;;;;;;14.32;3.00;;;;;;;;;;5065557;28;20079;-67
2022/05/17 00:45:46;;;;;;;;;;;;;;;;;;5070647;28;20072;-67
2022/05/17 00:48:13;;;;;;;13.10;3.10;;;;;;;;;;5065743;28;20378;-66
2022/05/17 00:50:46;;;;;;;16.27;3.10;;;;;;;;;;5073807;28;20045;-66
2022/05/17 00:53:27;;;;;;;7.10;2.42;;;;;;;;;;5071033;28;20044;-67
2022/05/17 00:55:55;;;;;;;14.75;2.78;;;;;;;;;;5065378;28;20108;-67
2022/05/17 00:58:40;;;;;;;27.27;3.95;;;;;;;;;;5065668;28;20055;-66
2022/05/17 01:01:09;;;;;;;19.15;2.88;;;;;;;;;;5056083;28;20040;-67
2022/05/17 01:03:51;;;;;;;5.47;2.10;;;;;;;;;;5065790;28;20089;-67
2022/05/17 01:06:18;;;;;;;27.88;4.15;;;;;;;;;;5065257;28;20095;-67
2022/05/17 01:08:45;;;;;;;15.02;3.10;;;;;;;;;;5070914;28;20521;-67
2022/05/17 01:11:11;;;;;;;8.65;3.22;;;;;;;;;;5067712;28;20045;-67
2022/05/17 01:16:23;;;;;;;12.05;3.60;;;;;;;;;;5069050;28;20040;-67
2022/05/17 01:18:51;;;;;;;13.07;2.58;;;;;;;;;;5063027;28;20593;-67
2022/05/17 01:21:17;;;;;;;11.10;3.50;;;;;;;;;;5062779;28;20041;-67
2022/05/17 01:23:44;;;;;;;14.93;3.28;;;;;;;;;;5066117;28;20032;-67
2022/05/17 01:26:18;;;;;;;5.15;2.10;;;;;;;;;;5069456;28;20040;-67
2022/05/17 01:28:45;;;;;;;7.93;2.40;;;;;;;;;;5066578;28;20094;-67
2022/05/17 01:31:11;;;;;;;4.68;1.98;;;;;;;;;;5065221;28;20051;-67
2022/05/17 01:33:39;;;;;;;7.47;2.35;;;;;;;;;;5064857;28;20566;-66
2022/05/17 01:36:07;;;;;;;9.38;2.10;;;;;;;;;;5065576;28;20049;-67
2022/05/17 01:38:33;;;;;;;19.38;3.38;;;;;;;;;;5073679;28;20123;-65
2022/05/17 01:41:00;;;;;;;8.00;2.65;;;;;;;;;;5064698;28;20041;-67
2022/05/17 01:43:27;;;;;;;9.85;2.60;;;;;;;;;;5068553;28;20086;-67
2022/05/17 01:45:53;;;;;;;7.22;2.13;;;;;;;;;;5066648;28;20036;-67
2022/05/17 01:48:20;;;;;;;13.25;2.65;;;;;;;;;;5063128;28;20096;-67
2022/05/17 01:50:46;;;;;;;16.65;2.65;;;;;;;;;;5070552;28;20409;-66
2022/05/17 01:53:13;;;;;;;3.90;1.90;;;;;;;;;;5067447;28;20068;-67
2022/05/17 01:55:39;;;;;;;29.15;3.45;;;;;;;;;;5063840;28;20032;-67
2022/05/17 01:58:06;;;;;;;6.75;1.75;;;;;;;;;;5064839;28;20143;-67
2022/05/17 02:00:32;;;;;;;19.13;4.13;;;;;;;;;;5064407;28;20036;-67
2022/05/17 02:02:59;;;;;;;14.40;2.47;;;;;;;;;;5067247;28;20145;-66
2022/05/17 02:05:26;;;;;;;12.40;2.30;;;;;;;;;;5070583;28;20036;-67
2022/05/17 02:07:52;;;;;;;18.27;2.88;;;;;;;;;;5064128;28;20048;-67
2022/05/17 02:10:20;;;;;;;6.47;1.58;;;;;;;;;;5052209;28;20390;-66
2022/05/17 02:12:46;;;;;;;12.88;2.08;;;;;;;;;;5063105;28;20040;-67
2022/05/17 02:15:13;;;;;;;9.15;1.85;;;;;;;;;;5064250;28;20535;-67
2022/05/17 02:17:39;;;;;;;5.47;1.42;;;;;;;;;;5073091;28;20040;-67
2022/05/17 02:20:06;;;;;;;11.80;2.50;;;;;;;;;;5062138;28;20099;-67
2022/05/17 02:22:33;;;;;;;9.15;2.05;;;;;;;;;;5063874;28;20040;-67
2022/05/17 02:24:59;;;;;;;9.65;1.73;;;;;;;;;;5064130;28;20036;-67
2022/05/17 02:27:26;;;;;;;13.30;2.20;;;;;;;;;;5063718;28;20385;-67
2022/05/17 02:29:52;;;;;;;19.05;2.75;;;;;;;;;;5068892;28;20040;-67
2022/05/17 02:32:19;;;;;;;16.23;2.45;;;;;;;;;;5068356;28;20045;-67
2022/05/17 02:34:45;;;;;;;11.88;2.22;;;;;;;;;;5063096;28;20053;-67
2022/05/17 02:37:12;;;;;;;11.77;2.45;;;;;;;;;;5055187;28;20033;-67
2022/05/17 02:39:38;;;;;;;6.07;1.95;;;;;;;;;;5063438;28;20135;-67
2022/05/17 02:42:05;;;;;;;14.57;2.67;;;;;;;;;;5064598;28;20112;-67
2022/05/17 02:44:32;;;;;;;89.45;6.35;;;;;;;;;;5071592;28;20507;-67
2022/05/17 02:46:58;;;;;;;12.23;2.17;;;;;;;;;;5064082;28;20032;-67
2022/05/17 02:49:24;;;;;;;11.25;2.30;;;;;;;;;;5063424;28;20063;-67
2022/05/17 02:51:51;;;;;;;9.05;1.98;;;;;;;;;;5063354;28;20047;-67
2022/05/17 02:54:17;;;;;;;8.65;2.30;;;;;;;;;;5063767;28;20117;-67
2022/05/17 02:56:44;;;;;;;13.73;2.58;;;;;;;;;;5070299;28;20415;-66
2022/05/17 02:59:12;;;;;;;267.23;20.70;;;;;;;;;;5065236;28;20506;-67
2022/05/17 03:01:38;;;;;;;14.57;2.70;;;;;;;;;;5054607;28;20040;-67
2022/05/17 03:04:05;;;;;;;8.50;2.33;;;;;;;;;;5063048;28;20037;-67
2022/05/17 03:06:31;;;;;;;7.95;1.80;;;;;;;;;;5063309;28;20040;-67
2022/05/17 03:08:58;;;;;;;13.77;2.85;;;;;;;;;;5092564;28;20044;-67
2022/05/17 03:11:24;;;;;;;10.07;2.53;;;;;;;;;;5068837;28;20037;-67
2022/05/17 03:13:51;;;;;;;7.10;2.10;;;;;;;;;;5063234;28;20048;-67
2022/05/17 03:16:17;;;;;;;7.38;2.55;;;;;;;;;;5067362;28;20037;-67
2022/05/17 03:18:44;;;;;;;10.65;2.33;;;;;;;;;;5058912;28;20040;-67
2022/05/17 03:21:10;;;;;;;10.32;2.00;;;;;;;;;;5063258;28;20033;-67
2022/05/17 03:23:37;;;;;;;9.45;2.20;;;;;;;;;;5072133;28;20059;-67
2022/05/17 03:26:04;;;;;;;5.38;1.88;;;;;;;;;;5062476;28;20094;-66
2022/05/17 03:28:30;;;;;;;16.70;2.88;;;;;;;;;;5057833;28;20039;-67
2022/05/17 03:30:57;;;;;;;12.90;2.60;;;;;;;;;;5063107;28;20123;-67
2022/05/17 03:33:23;;;;;;;25.15;4.13;;;;;;;;;;5066798;28;20045;-67
2022/05/17 03:35:50;;;;;;;20.13;2.95;;;;;;;;;;5068659;28;20039;-67
2022/05/17 03:38:16;;;;;;;3.10;1.08;;;;;;;;;;5067064;28;20123;-67
2022/05/17 03:40:45;;;;;;;18.35;2.50;;;;;;;;;;5062242;28;20040;-67
2022/05/17 03:43:12;;;;;;;9.25;1.42;;;;;;;;;;5062640;28;20065;-67
2022/05/17 03:45:39;;;;;;;19.58;2.47;;;;;;;;;;5062667;28;20041;-67
2022/05/17 03:48:05;;;;;;;10.98;1.70;;;;;;;;;;5064218;28;20386;-67
2022/05/17 03:50:32;;;;;;;21.13;2.78;;;;;;;;;;5070391;28;20040;-67
2022/05/17 03:53:00;;;;;;;20.95;2.58;;;;;;;;;;5062617;28;20044;-67
2022/05/17 03:55:26;;;;;;;20.25;2.47;;;;;;;;;;5062607;28;20129;-67
2022/05/17 03:57:52;;;;;;;10.25;1.58;;;;;;;;;;5061564;28;20512;-67
2022/05/17 04:00:19;;;;;;;23.20;2.50;;;;;;;;;;5061191;28;20069;-67
2022/05/17 04:02:46;;;;;;;32.25;4.43;;;;;;;;;;5069326;28;20037;-67
2022/05/17 04:05:12;;;;;;;11.13;1.30;;;;;;;;;;5067155;28;20094;-67
2022/05/17 04:07:39;;;;;;;2.95;1.25;;;;;;;;;;5066683;28;20036;-67
2022/05/17 04:10:07;;;;;;;20.50;2.80;;;;;;;;;;5053584;28;20063;-67
2022/05/17 04:12:34;;;;;;;16.33;1.73;;;;;;;;;;5060473;28;20641;-67
2022/05/17 04:15:00;;;;;;;14.00;2.00;;;;;;;;;;5064329;28;20107;-66
2022/05/17 04:17:28;;;;;;;19.42;2.97;;;;;;;;;;5068750;28;20047;-67
2022/05/17 04:19:55;;;;;;;10.30;2.10;;;;;;;;;;5059321;28;20039;-67
2022/05/17 04:22:22;;;;;;;131.35;10.85;;;;;;;;;;5062258;28;20046;-67
2022/05/17 04:24:52;;;;;;;8.48;2.65;;;;;;;;;;5051458;28;20041;-67
2022/05/17 04:27:20;;;;;;;20.20;4.28;;;;;;;;;;5061973;28;20479;-67
2022/05/17 04:29:46;;;;;;;25.25;3.92;;;;;;;;;;5069238;28;20490;-67
2022/05/17 04:32:13;;;;;;;22.73;3.63;;;;;;;;;;5066421;28;20037;-67
2022/05/17 04:34:39;;;;;;;13.75;3.08;;;;;;;;;;5062170;28;20045;-67
2022/05/17 04:37:06;;;;;;;17.10;2.22;;;;;;;;;;5063783;28;20052;-67
2022/05/17 04:39:35;;;;;;;16.38;2.13;;;;;;;;;;5069664;28;20056;-67
2022/05/17 04:42:01;;;;;;;16.75;2.92;;;;;;;;;;5067707;28;20776;-67
2022/05/17 04:44:28;;;;;;;18.77;3.20;;;;;;;;;;5071833;28;20037;-66
2022/05/17 04:46:54;;;;;;;14.35;2.67;;;;;;;;;;5065982;28;20044;-67
2022/05/17 04:49:22;;;;;;;10.68;2.15;;;;;;;;;;5065586;28;20498;-66
2022/05/17 04:51:52;;;;;;;8.88;2.40;;;;;;;;;;5065403;28;20039;-67
2022/05/17 04:54:19;;;;;;;24.38;3.03;;;;;;;;;;5065542;28;20484;-67
2022/05/17 04:56:46;;;;;;;365.45;31.23;;;;;;;;;;5072147;28;20652;-67
2022/05/17 04:59:12;;;;;;;15.32;2.53;;;;;;;;;;5067395;28;20047;-67
2022/05/17 05:01:39;;;;;;;26.77;3.28;;;;;;;;;;5064731;28;20203;-67
2022/05/17 05:04:06;;;;;;;39.42;5.53;;;;;;;;;;5063297;28;20132;-68
2022/05/17 05:06:32;;;;;;;252.98;19.25;;;;;;;;;;5063745;28;20040;-67
2022/05/17 05:08:59;;;;;;;18.27;2.60;;;;;;;;;;5067559;28;20652;-67
2022/05/17 05:11:25;;;;;;;13.70;2.53;;;;;;;;;;5069861;28;20041;-67
2022/05/17 05:13:52;;;;;;;10.55;1.77;;;;;;;;;;5063802;28;20513;-67
2022/05/17 05:16:18;;;;;;;13.80;2.15;;;;;;;;;;5064644;28;20397;-67
2022/05/17 05:18:45;;;;;;;11.70;1.85;;;;;;;;;;5065382;28;20099;-67
2022/05/17 05:21:12;;;;;;;8.07;1.63;;;;;;;;;;5059488;28;20030;-67
2022/05/17 05:23:40;;;;;;;10.30;2.00;;;;;;;;;;5064576;28;20055;-67
2022/05/17 05:26:07;;;;;;;9.77;1.70;;;;;;;;;;5065240;28;20476;-67
2022/05/17 05:28:35;;;;;;;82.18;6.53;;;;;;;;;;5064724;28;20045;-67
2022/05/17 05:31:03;;;;;;;9.82;2.15;;;;;;;;;;5064763;28;20033;-67
2022/05/17 05:33:31;;;;;;;8.73;1.70;;;;;;;;;;5064791;28;20053;-67
2022/05/17 05:35:58;;;;;;;16.75;2.35;;;;;;;;;;5068884;28;20045;-67
2022/05/17 05:38:26;;;;;;;14.68;3.28;;;;;;;;;;5070679;28;20494;-67
2022/05/17 05:40:53;;;;;;;31.70;3.38;;;;;;;;;;5064239;28;20052;-67
2022/05/17 05:43:21;;;;;;;13.43;1.63;;;;;;;;;;5064902;28;20486;-67
2022/05/17 05:45:48;;;;;;;10.95;1.45;;;;;;;;;;5064813;28;20111;-67
2022/05/17 05:48:15;;;;;;;20.67;2.80;;;;;;;;;;5064277;28;20038;-67
2022/05/17 05:50:41;;;;;;;10.15;1.40;;;;;;;;;;5073512;28;20049;-65
2022/05/17 05:53:10;;;;;;;23.25;2.97;;;;;;;;;;5064919;28;20145;-65
2022/05/17 05:55:37;;;;;;;21.17;2.78;;;;;;;;;;5055493;28;20072;-64
2022/05/17 05:58:05;;;;;;;27.30;3.40;;;;;;;;;;5064114;28;20033;-64
2022/05/17 06:00:32;;;;;;;19.10;2.10;;;;;;;;;;5064084;28;20373;-64
2022/05/17 06:02:59;;;;;;;34.38;4.82;;;;;;;;;;5067752;28;20146;-64
2022/05/17 06:05:27;;;;;;;13.18;1.60;;;;;;;;;;5070051;28;20039;-64
2022/05/17 06:07:53;;;;;;;24.38;2.40;;;;;;;;;;5064169;28;20062;-64
2022/05/17 06:10:20;;;;;;;7.97;1.65;;;;;;;;;;5064371;28;20118;-64
2022/05/17 06:12:47;;;;;;;15.90;2.15;;;;;;;;;;5063710;28;20040;-64
2022/05/17 06:15:14;;;;;;;245.55;19.17;;;;;;;;;;5064372;28;20048;-64
2022/05/17 06:17:46;;;;;;;89.55;7.45;;;;;;;;;;5071836;28;20062;-64
2022/05/17 06:20:16;;;;;;;15.73;1.48;;;;;;;;;;5061202;28;20037;-64
2022/05/17 06:22:42;;;;;;;21.35;3.13;;;;;;;;;;5063706;28;20098;-65
2022/05/17 06:25:09;;;;;;;22.90;2.95;;;;;;;;;;5066001;28;20050;-65
2022/05/17 06:27:36;;;;;;;15.77;3.15;;;;;;;;;;5062932;28;20040;-65
2022/05/17 06:30:03;;;;;;;55.97;5.85;;;;;;;;;;5060108;28;20048;-65
2022/05/17 06:32:29;;;;;;;12.38;1.48;;;;;;;;;;5067502;28;20098;-65
2022/05/17 06:34:56;;;;;;;46.15;4.65;;;;;;;;;;5058957;28;20051;-65
2022/05/17 06:37:22;;;;;;;7.38;1.88;;;;;;;;;;5057059;28;20115;-64
2022/05/17 06:39:49;;;;;;;20.30;2.83;;;;;;;;;;5063138;28;20055;-64
2022/05/17 06:42:15;;;;;;;10.88;1.58;;;;;;;;;;5063548;28;20059;-65
2022/05/17 06:44:42;;;;;;;7.70;1.27;;;;;;;;;;5072410;28;20127;-64
2022/05/17 06:47:08;;;;;;;20.25;2.22;;;;;;;;;;5063780;28;20045;-65
2022/05/17 06:49:39;;;;;;;9.75;1.40;;;;;;;;;;5063517;28;20044;-64
2022/05/17 06:52:08;;;;;;;10.48;1.65;;;;;;;;;;5060320;28;20033;-64
2022/05/17 06:54:42;;;;;;;36.63;3.70;;;;;;;;;;5050854;28;20036;-64
2022/05/17 06:57:13;;;;;;;32.55;3.20;;;;;;;;;;5067603;28;20040;-64
2022/05/17 06:59:40;;;;;;;17.42;2.05;;;;;;;;;;5052249;28;20529;-64
2022/05/17 07:02:07;;;;;;;9.23;1.27;;;;;;;;;;5061422;28;20040;-65
2022/05/17 07:04:34;;;;;;;34.97;3.10;;;;;;;;;;5058423;28;20079;-67
2022/05/17 07:07:02;;;;;;;16.65;2.13;;;;;;;;;;5063254;28;20036;-67
2022/05/17 07:09:29;;;;;;;21.98;2.50;;;;;;;;;;5061428;28;20123;-66
2022/05/17 07:14:49;;;;;;;178.38;14.13;;;;;;;;;;5006685;28;20064;-67
2022/05/17 07:17:17;;;;;;;11.45;1.58;;;;;;;;;;5010064;28;20061;-67
2022/05/17 07:19:44;;;;;;;9.32;1.70;;;;;;;;;;4976844;28;20096;-67
2022/05/17 07:22:11;;;;;;;11.93;1.58;;;;;;;;;;5009470;28;20133;-67
2022/05/17 07:24:38;;;;;;;10.15;1.83;;;;;;;;;;5009512;28;20132;-67
2022/05/17 07:27:05;;;;;;;13.07;1.85;;;;;;;;;;5009157;28;20136;-67
2022/05/17 07:29:48;;;;;;;30.80;3.97;;;;;;;;;;5009652;28;20053;-67
2022/05/17 07:32:15;;;;;;;13.60;2.10;;;;;;;;;;5009668;28;20049;-68
2022/05/17 07:34:42;;;;;;;9.43;1.23;;;;;;;;;;5009668;28;20050;-64
2022/05/17 07:37:08;;;;;;;9.52;1.48;;;;;;;;;;5009583;28;20100;-65
2022/05/17 07:39:35;;;;;;;11.15;1.70;;;;;;;;;;5008855;28;20100;-64
2022/05/17 07:42:04;;;;;;;447.23;37.95;;;;;;;;;;5009052;28;20042;-64
2022/05/17 07:44:33;;;;;;;11.48;1.90;;;;;;;;;;5009786;28;20074;-64
2022/05/17 07:46:59;;;;;;;11.88;1.90;;;;;;;;;;5009235;28;20112;-64
2022/05/17 07:49:26;;;;;;;4.68;1.25;;;;;;;;;;5009600;28;20053;-64
2022/05/17 07:51:54;;;;;;;85.28;7.78;;;;;;;;;;5035284;28;20525;-65
2022/05/17 07:54:21;;;;;;;11.98;1.88;;;;;;;;;;5059931;28;20120;-65
2022/05/17 07:56:48;;;;;;;17.20;2.03;;;;;;;;;;5063357;28;20457;-65
2022/05/17 07:59:14;;;;;;;7.55;1.27;;;;;;;;;;5064457;28;20513;-65
2022/05/17 08:01:41;;;;;;;21.27;2.40;;;;;;;;;;5054213;28;20035;-65
2022/05/17 08:04:08;;;;;;;5.40;1.15;;;;;;;;;;5062575;28;20486;-65
2022/05/17 08:06:38;;;;;;;21.20;2.80;;;;;;;;;;5063388;28;20064;-65
2022/05/17 08:09:05;;;;;;;30.02;3.28;;;;;;;;;;5054139;28;20049;-64
2022/05/17 08:11:31;;;;;;;38.08;3.30;;;;;;;;;;5069798;28;20421;-65
2022/05/17 08:13:58;;;;;;;6.32;1.55;;;;;;;;;;5066197;28;20409;-65
2022/05/17 08:16:41;;;;;;;6.47;1.00;;;;;;;;;;5066302;28;20120;-65
2022/05/17 08:19:09;;;;;;;23.58;2.30;;;;;;;;;;5063124;28;20044;-64
2022/05/17 08:21:35;;;;;;;16.08;2.15;;;;;;;;;;5066013;28;20049;-65
2022/05/17 08:24:02;;;;;;;16.35;1.90;;;;;;;;;;5072112;28;20139;-64
2022/05/17 08:29:14;;;;;;;6.25;1.00;;;;;;;;;;5067770;28;20056;-65
2022/05/17 08:31:40;;;;;;;9.13;2.35;;;;;;;;;;5066149;28;20040;-64
2022/05/17 08:34:08;;;;;;;11.15;1.35;;;;;;;;;;5068246;28;20040;-65
2022/05/17 08:36:35;;;;;;;8.07;1.90;;;;;;;;;;5066165;28;20475;-65
2022/05/17 08:39:02;;;;;;;12.02;2.20;;;;;;;;;;5069517;28;20131;-65
2022/05/17 08:41:51;;;;;;;536.95;34.03;;;;;;;;;;5066663;28;20060;-64
2022/05/17 08:44:21;;;;;;;6.90;1.42;;;;;;;;;;5070810;28;20159;-65
2022/05/17 08:47:05;;;;;;;16.60;1.83;;;;;;;;;;5065754;28;20043;-65
2022/05/17 08:50:01;;;;;;;15.93;1.80;;;;;;;;;;5065467;28;20055;-65
2022/05/17 08:52:29;;;;;;;8.02;1.60;;;;;;;;;;5070016;28;20041;-65
2022/05/17 08:55:11;;;;;;;9.07;1.60;;;;;;;;;;5054381;28;20091;-65
2022/05/17 08:57:39;;;;;;;18.58;2.42;;;;;;;;;;5033999;28;20442;-65
2022/05/17 09:00:09;;;;;;;10.45;2.63;;;;;;;;;;5066363;28;20491;-64
2022/05/17 09:02:38;;;;;;;19.40;2.65;;;;;;;;;;5064258;28;20047;-65
2022/05/17 09:05:08;;;;;;;28.40;1.70;;;;;;;;;;5064305;28;20045;-65
2022/05/17 09:07:44;;;;;;;11.40;1.75;;;;;;;;;;5065546;28;20700;-65
2022/05/17 09:10:18;;;;;;;13.05;1.77;;;;;;;;;;5065496;28;20052;-65
2022/05/17 09:12:44;;;;;;;8.07;1.50;;;;;;;;;;5068444;28;20041;-65
2022/05/17 09:15:12;;;;;;;11.57;2.08;;;;;;;;;;5066740;28;20037;-65
2022/05/17 09:17:39;;;;;;;16.67;1.83;;;;;;;;;;5074220;28;20067;-65
2022/05/17 09:20:08;;;;;;;11.75;1.83;;;;;;;;;;5061679;28;20410;-65
2022/05/17 09:22:34;;;;;;;7.88;1.40;;;;;;;;;;5064635;28;20463;-65
2022/05/17 09:25:11;;;;;;;4.38;0.90;;;;;;;;;;5056172;28;20046;-65
2022/05/17 09:27:38;;;;;;;22.90;2.90;;;;;;;;;;5064635;28;20040;-65
2022/05/17 09:30:10;;;;;;;16.17;2.33;;;;;;;;;;5068262;28;20163;-64
2022/05/17 09:32:38;;;;;;;8.50;1.20;;;;;;;;;;5072684;28;20040;-65
2022/05/17 09:35:11;;;;;;;6.07;1.55;;;;;;;;;;5064475;28;20117;-65
2022/05/17 09:37:39;;;;;;;3.65;1.38;;;;;;;;;;5065109;28;20036;-65
2022/05/17 09:40:08;;;;;;;13.38;2.00;;;;;;;;;;5064434;28;20394;-65
2022/05/17 09:42:42;;;;;;;26.13;3.05;;;;;;;;;;5064376;28;20041;-65
2022/05/17 09:45:16;;;;;;;25.90;2.70;;;;;;;;;;5066990;28;20052;-64
2022/05/17 09:47:52;;;;;;;9.93;1.27;;;;;;;;;;5065636;28;20510;-64
2022/05/17 09:53:06;;;;;;;29.60;3.40;;;;;;;;;;5064139;28;20138;-64
2022/05/17 09:55:33;;;;;;;4.82;1.13;;;;;;;;;;5064614;28;20517;-64
2022/05/17 09:58:00;;;;;;;12.68;1.60;;;;;;;;;;5064261;28;20056;-65
2022/05/17 10:00:47;;;;;;;74.97;6.63;;;;;;;;;;5065235;28;20045;-65
2022/05/17 10:03:19;;;;;;;21.75;2.58;;;;;;;;;;5065183;28;20475;-65
2022/05/17 10:05:49;;;;;;;12.70;1.77;;;;;;;;;;5065643;28;20036;-64
2022/05/17 10:08:15;;;;;;;18.98;2.53;;;;;;;;;;5065442;28;20123;-65
2022/05/17 10:10:43;;;;;;;13.77;2.10;;;;;;;;;;5064152;28;20128;-65
2022/05/17 10:13:10;;;;;;;12.70;1.90;;;;;;;;;;5063751;28;20036;-64
2022/05/17 10:15:38;;;;;;;6.80;1.50;;;;;;;;;;5064815;28;20037;-65
2022/05/17 10:18:14;;;;;;;23.02;2.95;;;;;;;;;;5066881;28;20090;-67
2022/05/17 10:20:44;;;;;;;98.90;9.63;;;;;;;;;;5069765;28;20094;-66
2022/05/17 10:23:45;;;;;;;12.02;1.63;;;;;;;;;;5063641;28;20115;-67
2022/05/17 10:26:14;;;;;;;23.42;1.63;;;;;;;;;;5045822;28;20052;-66
2022/05/17 10:28:52;;;;;;;14.80;1.73;;;;;;;;;;5045295;28;20052;-67
2022/05/17 10:31:44;;;;;;;11.70;1.35;;;;;;;;;;5045721;28;20135;-67
2022/05/17 10:34:30;;;;;;;45.97;4.03;;;;;;;;;;5040817;28;20049;-67
2022/05/17 10:36:58;;;;;;;39.60;4.40;;;;;;;;;;5045348;28;20561;-67
2022/05/17 10:39:28;;;;;;;8.40;1.73;;;;;;;;;;5045458;28;20050;-67
2022/05/17 10:41:55;;;;;;;16.27;2.00;;;;;;;;;;5048261;28;20056;-67
2022/05/17 10:44:22;;;;;;;13.75;1.98;;;;;;;;;;5047596;28;20102;-67
2022/05/17 10:46:56;;;;;;;11.18;1.50;;;;;;;;;;5045073;28;20080;-67
2022/05/17 10:49:36;;;;;;;7.30;1.48;;;;;;;;;;5045231;28;20424;-67
2022/05/17 10:52:06;;;;;;;57.10;5.38;;;;;;;;;;5045225;28;20044;-67
2022/05/17 10:54:51;;;;;;;26.13;2.15;;;;;;;;;;5045092;28;20111;-66
2022/05/17 10:57:41;;;;;;;18.65;3.03;;;;;;;;;;5038221;28;20040;-67
2022/05/17 11:00:18;;;;;;;17.63;1.95;;;;;;;;;;5053189;28;20065;-67
2022/05/17 11:02:56;;;;;;;10.18;1.13;;;;;;;;;;5064209;28;20040;-66
2022/05/17 11:05:41;;;;;;;6.18;1.23;;;;;;;;;;5066549;28;20391;-67
2022/05/17 11:08:31;;;;;;;5.65;1.13;;;;;;;;;;5063287;28;20143;-66
2022/05/17 11:11:03;;;;;;;7.60;1.20;;;;;;;;;;5063733;28;20133;-66
2022/05/17 11:13:33;;;;;;;8.23;1.42;;;;;;;;;;5062954;28;20064;-66
2022/05/17 11:16:13;;;;;;;13.75;1.70;;;;;;;;;;5062836;28;20040;-67
2022/05/17 11:18:49;;;;;;;14.02;1.52;;;;;;;;;;5061015;28;20032;-66
2022/05/17 11:21:39;;;;;;;723.30;60.95;;;;;;;;;;5050622;28;20123;-66
2022/05/17 11:24:24;;;;;;;13.77;1.67;;;;;;;;;;5065567;28;20143;-66
2022/05/17 11:27:00;;;;;;;11.05;2.40;;;;;;;;;;5047928;28;20131;-64
2022/05/17 11:29:30;;;;;;;7.97;1.25;;;;;;;;;;5067509;28;20522;-64
2022/05/17 11:32:01;;;;;;;10.27;1.42;;;;;;;;;;5064472;28;20046;-64
2022/05/17 11:34:35;;;;;;;12.45;1.38;;;;;;;;;;5064688;28;20055;-63
2022/05/17 11:37:08;;;;;;;85.47;6.00;;;;;;;;;;5064571;28;20055;-64
2022/05/17 11:39:37;;;;;;;8.83;1.53;;;;;;;;;;5064600;28;20095;-64
2022/05/17 11:42:09;;;;;;;19.27;2.17;;;;;;;;;;5066720;28;20139;-64
2022/05/17 11:44:44;;;;;;;10.32;1.52;;;;;;;;;;5068444;28;20076;-63
2022/05/17 11:47:31;;;;;;;10.10;1.40;;;;;;;;;;5068036;28;20048;-63
2022/05/17 11:50:15;;;;;;;8.27;0.85;;;;;;;;;;5068745;28;20079;-66
2022/05/17 11:52:43;;;;;;;22.33;2.42;;;;;;;;;;5064389;28;20052;-66
2022/05/17 11:55:11;;;;;;;52.78;3.75;;;;;;;;;;5060094;28;20052;-66
2022/05/17 11:57:38;;;;;;;12.30;1.40;;;;;;;;;;5068344;28;20139;-66
2022/05/17 12:00:07;;;;;;;38.75;3.63;;;;;;;;;;5054430;28;20136;-66
2022/05/17 12:02:40;;;;;;;9.05;1.40;;;;;;;;;;5056143;28;20041;-66
2022/05/17 12:05:09;;;;;;;214.95;16.05;;;;;;;;;;5065776;28;20115;-66
2022/05/17 12:07:36;;;;;;;24.98;4.57;;;;;;;;;;5066202;28;20089;-66
2022/05/17 12:10:13;;;;;;;11.02;1.35;;;;;;;;;;5066235;28;20144;-66
2022/05/17 12:12:59;;;;;;;15.88;1.83;;;;;;;;;;5066424;28;20037;-66
2022/05/17 12:15:31;;;;;;;20.85;2.22;;;;;;;;;;5066799;28;20128;-66
2022/05/17 12:18:18;;;;;;;29.25;3.20;;;;;;;;;;5071946;28;20047;-66
2022/05/17 12:20:52;;;;;;;24.77;2.80;;;;;;;;;;5069468;28;20057;-66
2022/05/17 12:23:40;;;;;;;16.35;1.63;;;;;;;;;;5068518;28;20032;-66
2022/05/17 12:26:08;;;;;;;40.50;3.30;;;;;;;;;;5062917;28;20057;-66
2022/05/17 12:28:42;;;;;;;13.65;2.20;;;;;;;;;;5065022;28;20077;-66
2022/05/17 12:31:10;;;;;;;755.83;68.40;;;;;;;;;;5069948;28;20483;-66
2022/05/17 12:33:41;;;;;;;18.45;1.95;;;;;;;;;;5069264;28;20037;-66
2022/05/17 12:36:17;;;;;;;79.07;3.60;;;;;;;;;;5069421;28;20049;-66
2022/05/17 12:44:24;;;;;;;18.40;2.20;;;;;;;;;;5068924;28;20406;-65
2022/05/17 12:46:52;;;;;;;18.60;1.88;;;;;;;;;;5065695;28;20039;-66
2022/05/17 12:49:22;;;;;;;12.55;1.17;;;;;;;;;;5060632;28;20537;-65
2022/05/17 12:51:54;;;;;;;16.08;1.67;;;;;;;;;;5054200;28;20041;-66
2022/05/17 12:54:22;;;;;;;12.60;2.90;;;;;;;;;;5065697;28;20108;-66
2022/05/17 12:57:19;;;;;;;20.65;2.50;;;;;;;;;;5068576;28;20075;-65
2022/05/17 12:59:45;;;;;;;6.13;1.25;;;;;;;;;;5066079;28;20457;-66
2022/05/17 13:02:19;;;;;;;9.00;1.40;;;;;;;;;;5065269;28;20383;-66
2022/05/17 13:04:45;;;;;;;39.33;2.47;;;;;;;;;;5065502;28;20041;-66
2022/05/17 13:07:14;;;;;;;15.43;2.03;;;;;;;;;;5065426;28;20076;-66
2022/05/17 13:09:55;;;;;;;13.63;1.33;;;;;;;;;;5065399;28;20060;-65
2022/05/17 13:12:22;;;;;;;116.28;10.57;;;;;;;;;;5064424;28;20069;-65
2022/05/17 13:14:50;;;;;;;12.50;1.92;;;;;;;;;;5066601;28;20127;-66
2022/05/17 13:17:21;;;;;;;16.83;2.15;;;;;;;;;;5066347;28;20039;-65
2022/05/17 13:19:48;;;;;;;33.65;2.35;;;;;;;;;;5061288;28;20040;-65
2022/05/17 13:22:17;;;;;;;9.40;1.35;;;;;;;;;;5065024;28;20036;-65
2022/05/17 13:24:46;;;;;;;29.73;2.25;;;;;;;;;;5065161;28;20056;-66
2022/05/17 13:27:20;;;;;;;45.35;3.63;;;;;;;;;;5066192;28;20471;-66
2022/05/17 13:29:50;;;;;;;25.38;2.25;;;;;;;;;;5066011;28;20082;-66
2022/05/17 13:32:17;;;;;;;11.18;1.52;;;;;;;;;;5065838;28;20048;-66
2022/05/17 13:34:44;;;;;;;29.70;5.20;;;;;;;;;;5064430;28;20041;-66
2022/05/17 13:37:12;;;;;;;7.90;1.42;;;;;;;;;;5064710;28;20045;-66
2022/05/17 13:39:50;;;;;;;18.23;2.47;;;;;;;;;;5065067;28;20123;-66
2022/05/17 13:42:22;;;;;;;;;;;;;;;;;;5063583;28;20033;-66
2022/05/17 13:44:54;;;;;;;147.73;10.10;;;;;;;;;;5073686;28;19920;-65
2022/05/17 13:47:22;;;;;;;24.13;2.53;;;;;;;;;;5066497;28;20051;-66
2022/05/17 13:49:48;;;;;;;120.90;10.98;;;;;;;;;;5064442;28;20097;-65
2022/05/17 13:52:20;;;;;;;258.50;21.27;;;;;;;;;;5064443;28;20039;-66
2022/05/17 13:54:51;;;;;;;144.13;12.40;;;;;;;;;;5064393;28;20119;-66
2022/05/17 13:57:23;;;;;;;11.35;1.20;;;;;;;;;;5065132;28;20073;-66
2022/05/17 13:59:51;;;;;;;5.80;1.10;;;;;;;;;;5065655;28;20036;-66
2022/05/17 14:02:38;;;;;;;44.28;2.92;;;;;;;;;;5067027;28;20049;-65
2022/05/17 14:05:08;;;;;;;20.27;2.72;;;;;;;;;;5064327;28;20072;-66
2022/05/17 14:07:36;;;;;;;75.80;5.43;;;;;;;;;;5064381;28;20045;-66
2022/05/17 14:13:09;;;;;;;14.30;1.98;;;;;;;;;;5063788;28;20036;-66
2022/05/17 14:15:37;;;;;;;49.78;4.32;;;;;;;;;;5064065;28;20045;-66
2022/05/17 14:18:04;;;;;;;26.63;3.13;;;;;;;;;;5068568;28;20494;-66
2022/05/17 14:20:32;;;;;;;11.90;1.33;;;;;;;;;;5065448;28;20042;-65
2022/05/17 14:22:59;;;;;;;229.80;17.92;;;;;;;;;;5066017;28;20052;-66
2022/05/17 14:25:26;;;;;;;37.58;3.92;;;;;;;;;;5063340;28;20044;-65
2022/05/17 14:27:56;;;;;;;7.95;1.55;;;;;;;;;;5062651;28;20047;-65
2022/05/17 14:30:23;;;;;;;35.70;3.65;;;;;;;;;;5063466;28;20464;-66
2022/05/17 14:32:55;;;;;;;78.13;8.50;;;;;;;;;;5071216;28;20036;-65
2022/05/17 14:35:22;;;;;;;19.70;1.75;;;;;;;;;;5065518;28;20127;-65
2022/05/17 14:37:49;;;;;;;39.22;4.03;;;;;;;;;;5063421;28;20410;-65
2022/05/17 14:40:16;;;;;;;74.35;5.80;;;;;;;;;;5063329;28;20068;-65
2022/05/17 14:42:44;;;;;;;10.82;1.48;;;;;;;;;;5057601;28;20051;-66
2022/05/17 14:45:18;;;;;;;14.85;1.80;;;;;;;;;;5064567;28;20555;-65
2022/05/17 14:47:47;;;;;;;17.88;1.90;;;;;;;;;;5072156;28;20336;-66
2022/05/17 14:50:15;;;;;;;20.05;2.10;;;;;;;;;;5063336;28;20049;-65
2022/05/17 14:52:42;;;;;;;905.92;94.82;;;;;;;;;;5063068;28;20055;-65
2022/05/17 14:55:10;;;;;;;12.20;1.15;;;;;;;;;;5065949;28;20064;-65
2022/05/17 14:57:37;;;;;;;29.77;2.08;;;;;;;;;;5063102;28;20034;-66
2022/05/17 15:00:05;;;;;;;57.85;5.13;;;;;;;;;;5068393;28;20044;-65
2022/05/17 15:02:32;;;;;;;47.50;4.50;;;;;;;;;;5054562;28;20044;-65
2022/05/17 15:04:59;;;;;;;33.42;3.05;;;;;;;;;;5060569;28;20044;-67
2022/05/17 15:07:26;;;;;;;18.30;1.77;;;;;;;;;;5063135;28;20482;-67